CDT,Max TemperatureF,Mean TemperatureF,Min TemperatureF,Max Dew PointF,MeanDew PointF,Min DewpointF,Max Humidity, Mean Humidity, Min Humidity, Max Sea Level PressureIn, Mean Sea Level PressureIn, Min Sea Level PressureIn, Max VisibilityMiles, Mean VisibilityMiles, Min VisibilityMiles, Max Wind SpeedMPH, Mean Wind SpeedMPH, Max Gust SpeedMPH,PrecipitationIn, CloudCover, Events, WindDirDegrees
2012-3-1,38,31,23,21,10,-6,71,47,15,29.74,29.69,29.65,10,10,10,25,11,36,0.00,4,,300
2012-3-2,34,26,17,15,9,-1,73,53,24,29.96,29.85,29.73,10,10,10,25,13,33,0.00,2,,311
2012-3-3,41,30,19,19,10,4,60,42,28,29.99,29.94,29.87,10,10,10,38,22,50,0.00,2,,300
2012-3-4,54,46,38,23,22,20,52,39,27,30.11,30.02,29.89,10,10,10,38,31,48,0.00,2,,300
2012-3-5,65,44,22,23,15,5,85,43,9,30.11,29.96,29.82,10,10,10,36,12,46,0.00,0,,251
2012-3-6,69,50,30,28,9,-1,64,22,6,29.76,29.58,29.42,10,10,10,26,13,36,0.00,0,,221
2012-3-7,37,30,24,30,20,13,95,71,48,30.06,29.83,29.56,10,9,3,28,18,37,0.00,7,,341
2012-3-8,46,30,13,17,10,4,86,53,17,30.43,30.34,30.19,10,10,7,14,8,,0.00,0,,292
2012-3-9,60,40,21,14,8,1,61,37,9,30.44,30.31,30.14,10,10,10,14,10,18,0.00,0,,233
2012-3-10,68,44,19,28,12,5,67,34,9,30.13,29.99,29.85,10,10,10,23,10,29,0.00,0,,227
2012-3-11,60,45,30,38,30,14,99,65,16,29.86,29.70,29.58,10,9,0,18,8,21,0.00,2,Fog,221
2012-3-12,66,50,34,20,16,11,54,29,12,29.93,29.82,29.62,10,10,3,26,14,38,0.00,0,,265
2012-3-13,69,50,32,18,12,7,54,26,9,29.93,29.85,29.74,10,10,7,25,10,29,0.00,0,,237
2012-3-14,72,54,37,14,9,2,35,18,6,29.99,29.91,29.82,10,10,10,24,12,32,0.00,0,,269
2012-3-15,69,52,36,27,21,14,56,32,14,30.11,30.04,29.99,10,10,10,18,7,28,0.00,1,,284
2012-3-16,74,53,32,22,18,13,58,30,10,30.00,29.86,29.74,10,10,10,16,5,21,0.00,0,,217
2012-3-17,75,53,31,22,17,11,65,33,9,29.77,29.70,29.56,10,10,10,23,9,32,0.00,0,,225
2012-3-18,72,50,29,23,13,7,52,25,9,29.55,29.47,29.31,10,9,4,43,13,60,0.00,1,,199
2012-3-19,53,40,26,24,8,-10,61,31,8,29.64,29.51,29.38,10,10,10,18,10,25,0.00,2,,274
2012-3-20,50,39,28,25,15,2,77,45,15,29.98,29.91,29.67,10,10,7,18,11,22,0.00,2,,343
2012-3-21,59,40,22,19,15,11,64,38,16,30.01,29.96,29.92,10,10,10,15,10,21,0.00,0,,319
2012-3-22,64,44,25,43,22,9,80,43,16,30.00,29.95,29.88,10,10,10,17,8,23,0.00,2,,352
2012-3-23,72,50,28,35,25,13,94,55,11,30.00,29.95,29.91,10,10,10,12,6,,0.00,0,,256
2012-3-24,65,50,34,36,31,23,72,49,30,30.12,30.05,29.97,10,10,10,22,11,26,0.00,0,,344
2012-3-25,70,52,34,46,40,33,98,76,35,30.13,30.05,29.94,10,7,0,13,7,16,0.00,2,Fog,170
2012-3-26,78,58,39,46,29,7,98,52,7,29.93,29.70,29.45,10,7,0,44,14,53,0.00,0,Fog,195
2012-3-27,67,54,40,17,14,11,36,24,13,30.01,29.93,29.79,10,10,10,32,19,39,0.00,0,,302
2012-3-28,72,53,34,37,22,13,64,32,10,30.04,29.94,29.82,10,10,10,22,9,26,0.00,0,,192
2012-3-29,66,54,42,47,23,6,94,38,10,29.93,29.87,29.80,10,10,7,33,16,43,0.00,0,,299
2012-3-30,73,54,34,25,20,15,50,27,12,29.89,29.86,29.79,10,10,10,31,11,38,0.00,1,,277
2012-3-31,78,60,41,31,26,22,57,31,12,29.91,29.83,29.68,10,10,7,24,10,30,0.00,0,,245